Boston, Massachusetts
Traffic Map
Current Weather Conditions
Boston, Massachusetts
Clear
Clear
18°
Feels Like: 18°
Wind Chill: 18° Ceiling: Unl
Heat Index: 18° Visibility: 10mi
Dew Point: 13° Wind: 8mph
Humidity: 70% Direction: 300° (WNW)
Pressure: 30.16in Gusts: 0mph
Raw Report DataKBOS 300854Z 30007KT 10SM CLR 18/13 A3016 RMK AO2 SLP211 T01830128 53002
Traffic Incident Summary
Active as of:
Severity:
Category:
InformationThere was an issue retrieving the traffic information for this location. Please try a different location or try again shortly.
Advertisements
Track Severe Weather on mobile